Time;durP1;ratioP1;P1;durP2;ratioP2;P2;SDS_P1;SDS_P2;PMS_P1;PMS_P2;Temp;Humidity;BMP_temperature;BMP_pressure;BME280_temperature;BME280_humidity;BME280_pressure;Samples;Min_cycle;Max_cycle;Signal;HPM_P1;HPM_P2
2023/04/23 00:01:34;;;;;;;7.33;3.53;;;;;;;11.38;72.95;99633.88;4971564;28;20538;-72
2023/04/23 00:03:59;;;;;;;8.30;4.68;;;;;;;11.37;72.77;99624.22;4973574;28;20027;-72
2023/04/23 00:06:25;;;;;;;8.83;5.03;;;;;;;11.37;72.58;99623.38;4970910;28;20137;-72
2023/04/23 00:08:52;;;;;;;9.07;4.82;;;;;;;11.35;72.41;99628.66;4960855;28;20041;-72
2023/04/23 00:11:18;;;;;;;9.00;4.45;;;;;;;11.34;72.70;99629.56;4943508;28;20035;-73
2023/04/23 00:13:45;;;;;;;7.67;4.03;;;;;;;11.30;72.28;99622.59;4976725;28;20033;-72
2023/04/23 00:16:12;;;;;;;7.30;4.20;;;;;;;11.25;72.65;99619.19;4960457;28;20034;-72
2023/04/23 00:18:37;;;;;;;6.80;3.75;;;;;;;11.20;72.74;99617.47;4976648;28;20367;-72
2023/04/23 00:21:02;;;;;;;7.53;4.30;;;;;;;11.19;72.44;99615.75;4960248;28;20046;-72
2023/04/23 00:23:28;;;;;;;7.23;3.97;;;;;;;11.18;72.56;99608.72;4978073;28;20031;-73
2023/04/23 00:25:53;;;;;;;7.05;3.60;;;;;;;11.13;71.93;99609.72;4975609;28;20067;-72
2023/04/23 00:28:19;;;;;;;7.20;3.40;;;;;;;11.06;72.61;99601.06;4984105;28;20035;-72
2023/04/23 00:30:45;;;;;;;7.38;3.50;;;;;;;11.04;72.58;99605.47;4982489;28;20030;-73
2023/04/23 00:33:10;;;;;;;7.90;3.70;;;;;;;11.02;72.32;99599.38;4983127;28;20026;-73
2023/04/23 00:35:36;;;;;;;6.17;3.03;;;;;;;11.00;72.13;99598.53;4981495;28;20027;-72
2023/04/23 00:38:01;;;;;;;8.47;3.20;;;;;;;10.97;72.69;99603.81;4963596;28;20023;-73
2023/04/23 00:40:26;;;;;;;7.23;3.50;;;;;;;10.95;72.08;99600.34;4978162;28;20041;-72
2023/04/23 00:42:52;;;;;;;7.03;3.50;;;;;;;10.91;72.46;99600.41;4983994;28;20029;-73
2023/04/23 00:45:18;;;;;;;6.60;3.03;;;;;;;10.88;72.08;99605.72;4982466;28;20504;-73
2023/04/23 00:47:44;;;;;;;6.93;3.53;;;;;;;10.86;71.91;99607.50;4966876;28;20459;-73
2023/04/23 00:50:10;;;;;;;8.03;3.60;;;;;;;10.77;71.97;99608.53;4979803;28;20476;-72
2023/04/23 00:52:37;;;;;;;7.00;3.70;;;;;;;10.70;72.16;99606.00;4981014;28;20050;-72
2023/04/23 00:55:03;;;;;;;9.35;3.20;;;;;;;10.68;72.59;99602.53;4947915;28;20047;-72
2023/04/23 00:57:29;;;;;;;7.00;3.50;;;;;;;10.68;72.63;99602.53;4981501;28;20033;-72
2023/04/23 00:59:57;;;;;;;6.50;3.40;;;;;;;10.69;72.19;99599.88;4998778;28;20093;-72
2023/04/23 01:02:23;;;;;;;9.68;4.40;;;;;;;10.69;72.38;99585.81;4998635;28;20062;-73
2023/04/23 01:04:50;;;;;;;11.43;4.72;;;;;;;10.70;72.01;99584.94;4979644;28;20031;-72
2023/04/23 01:07:15;;;;;;;11.97;4.83;;;;;;;10.69;72.32;99585.81;4976467;28;20503;-72
2023/04/23 01:09:40;;;;;;;11.80;5.53;;;;;;;10.69;72.73;99580.56;4989863;28;20106;-72
2023/04/23 01:12:06;;;;;;;14.80;5.07;;;;;;;10.67;72.35;99579.72;4979712;28;20042;-72
2023/04/23 01:14:32;;;;;;;10.57;5.27;;;;;;;10.65;72.82;99574.50;4971138;28;20019;-72
2023/04/23 01:16:57;;;;;;;10.98;5.07;;;;;;;10.65;72.82;99570.97;4979009;28;20038;-72
2023/04/23 01:19:23;;;;;;;13.93;5.47;;;;;;;10.66;72.34;99575.34;4969688;28;20052;-72
2023/04/23 01:21:48;;;;;;;8.73;4.97;;;;;;;10.63;72.21;99569.25;4995556;28;20406;-72
2023/04/23 01:24:14;;;;;;;11.60;4.90;;;;;;;10.61;72.26;99568.41;4983665;28;20030;-72
2023/04/23 01:26:39;;;;;;;8.87;4.83;;;;;;;10.60;72.41;99568.41;4982575;28;20433;-73
2023/04/23 01:29:05;;;;;;;8.70;4.30;;;;;;;10.56;72.27;99562.34;4983817;28;20018;-72
2023/04/23 01:31:30;;;;;;;8.30;4.50;;;;;;;10.56;72.22;99562.34;4990584;28;20030;-72
2023/04/23 01:33:55;;;;;;;9.07;4.57;;;;;;;10.54;72.71;99558.88;4966454;28;20022;-72
2023/04/23 01:36:24;;;;;;;9.27;4.03;;;;;;;10.52;72.62;99558.03;4998701;28;20479;-73
2023/04/23 01:38:50;;;;;;;8.02;3.90;;;;;;;10.50;72.64;99546.66;4960814;28;20089;-73
2023/04/23 01:41:15;;;;;;;8.70;5.27;;;;;;;10.50;72.63;99540.50;4980593;28;20034;-72
2023/04/23 01:43:41;;;;;;;9.43;5.07;;;;;;;10.48;72.90;99532.59;4979426;28;20467;-72
2023/04/23 01:46:06;;;;;;;19.45;5.50;;;;;;;10.42;72.82;99530.09;4975820;28;20031;-72
2023/04/23 01:48:32;;;;;;;10.83;4.70;;;;;;;10.37;73.31;99526.63;4969887;28;20035;-72
2023/04/23 01:50:57;;;;;;;8.57;4.60;;;;;;;10.37;73.01;99524.00;4975987;28;20028;-72
2023/04/23 01:53:22;;;;;;;7.82;4.57;;;;;;;10.36;73.21;99528.38;4950784;29;20031;-72
2023/04/23 01:55:48;;;;;;;8.10;4.33;;;;;;;10.38;73.24;99533.63;4976352;28;20037;-72
2023/04/23 01:58:14;;;;;;;8.93;4.65;;;;;;;10.38;73.41;99525.72;4975883;28;20031;-72
2023/04/23 02:00:40;;;;;;;8.57;4.40;;;;;;;10.38;73.07;99528.34;4977449;28;20042;-72
2023/04/23 02:03:05;;;;;;;8.60;4.70;;;;;;;10.34;72.96;99523.16;4962960;28;20089;-71
2023/04/23 02:05:31;;;;;;;7.25;4.32;;;;;;;10.31;73.09;99523.19;4979123;28;20031;-71
2023/04/23 02:07:57;;;;;;;9.38;4.05;;;;;;;10.28;73.36;99523.25;4962993;28;20035;-71
2023/04/23 02:10:22;;;;;;;6.50;3.57;;;;;;;10.25;73.32;99525.94;4980015;28;20023;-72
2023/04/23 02:12:48;;;;;;;7.07;3.53;;;;;;;10.24;73.13;99524.16;4980126;28;20038;-72
2023/04/23 02:15:14;;;;;;;8.13;4.07;;;;;;;10.25;73.33;99525.94;4975305;28;20030;-73
2023/04/23 02:17:40;;;;;;;8.32;4.47;;;;;;;10.24;73.20;99515.41;4959194;28;20031;-72
2023/04/23 02:20:09;;;;;;;8.02;4.50;;;;;;;10.22;72.71;99509.31;4975759;28;20057;-71
2023/04/23 02:22:38;;;;;;;8.70;4.28;;;;;;;10.19;72.63;99512.84;4980252;28;20037;-71
2023/04/23 02:25:05;;;;;;;8.03;3.73;;;;;;;10.17;73.09;99518.16;4980043;28;20061;-71
2023/04/23 02:27:32;;;;;;;6.78;3.45;;;;;;;10.14;72.89;99509.41;4975563;28;20476;-71
2023/04/23 02:29:57;;;;;;;8.00;4.05;;;;;;;10.11;72.95;99522.63;4957094;28;20038;-71
2023/04/23 02:32:23;;;;;;;7.37;3.50;;;;;;;10.07;72.89;99515.66;4969910;28;20022;-72
2023/04/23 02:34:48;;;;;;;6.75;3.70;;;;;;;10.02;73.12;99519.22;4975167;28;20030;-73
2023/04/23 02:37:13;;;;;;;7.73;3.50;;;;;;;10.01;73.17;99517.50;4971285;28;20439;-72
2023/04/23 02:39:39;;;;;;;6.70;3.40;;;;;;;9.99;73.39;99516.63;4994613;28;20077;-72
2023/04/23 02:42:04;;;;;;;6.23;3.30;;;;;;;9.97;73.10;99513.13;4975177;28;20031;-72
2023/04/23 02:44:30;;;;;;;6.53;3.27;;;;;;;9.97;73.17;99513.13;4972038;28;20019;-72
2023/04/23 02:46:55;;;;;;;5.80;3.03;;;;;;;9.97;73.21;99507.03;4955044;28;20386;-72
2023/04/23 02:49:21;;;;;;;5.60;3.10;;;;;;;9.90;73.49;99503.59;4977751;28;20057;-72
2023/04/23 02:51:46;;;;;;;6.57;3.30;;;;;;;9.79;73.68;99513.41;4979022;28;20027;-72
2023/04/23 02:54:12;;;;;;;5.70;2.90;;;;;;;9.75;73.98;99507.31;4962026;28;20026;-72
2023/04/23 02:56:37;;;;;;;5.85;2.55;;;;;;;9.75;73.75;99510.78;4979255;28;20424;-72
2023/04/23 02:59:03;;;;;;;7.20;3.40;;;;;;;9.75;73.93;99505.53;4979306;28;20399;-69
2023/04/23 03:01:28;;;;;;;6.45;3.00;;;;;;;9.76;73.78;99495.91;4944688;28;20023;-69
2023/04/23 03:03:54;;;;;;;7.00;2.93;;;;;;;9.76;73.45;99490.66;4979338;28;20832;-70
2023/04/23 03:06:19;;;;;;;5.60;2.77;;;;;;;9.74;73.55;99493.28;4977830;28;20026;-69
2023/04/23 03:08:44;;;;;;;5.63;3.00;;;;;;;9.71;73.73;99490.69;4979151;28;20019;-69
2023/04/23 03:11:10;;;;;;;5.35;2.63;;;;;;;9.71;73.64;99501.22;4975027;28;20539;-69
2023/04/23 03:13:35;;;;;;;5.33;2.80;;;;;;;9.72;73.70;99500.31;4957953;28;20027;-69
2023/04/23 03:16:01;;;;;;;6.43;3.10;;;;;;;9.71;73.84;99506.47;4975407;28;20018;-69
2023/04/23 03:18:26;;;;;;;6.33;3.40;;;;;;;9.63;73.89;99503.09;4978933;28;20475;-69
2023/04/23 03:20:52;;;;;;;6.78;3.40;;;;;;;9.53;74.37;99499.69;4978875;28;20487;-69
2023/04/23 03:23:17;;;;;;;6.53;3.70;;;;;;;9.46;74.30;99498.03;4976539;28;20026;-69
2023/04/23 03:25:42;;;;;;;5.97;2.97;;;;;;;9.42;73.92;99491.94;4979017;28;20030;-69
2023/04/23 03:28:08;;;;;;;7.10;2.90;;;;;;;9.45;74.38;99491.91;4979025;28;20018;-69
2023/04/23 03:30:33;;;;;;;5.83;2.73;;;;;;;9.46;74.60;99498.03;4973828;28;20019;-69
2023/04/23 03:32:59;;;;;;;5.70;2.90;;;;;;;9.50;74.16;99505.00;4972636;28;20022;-69
2023/04/23 03:35:25;;;;;;;6.60;3.27;;;;;;;9.50;74.29;99507.63;4961522;28;20031;-69
2023/04/23 03:37:51;;;;;;;6.28;3.15;;;;;;;9.43;74.26;99506.81;4975721;28;20479;-69
2023/04/23 03:40:16;;;;;;;5.70;3.00;;;;;;;9.40;74.51;99503.34;4977130;28;20037;-68
2023/04/23 03:42:42;;;;;;;5.93;3.30;;;;;;;9.34;74.75;99496.41;4976834;28;20391;-69
2023/04/23 03:45:08;;;;;;;5.30;2.70;;;;;;;9.32;74.87;99491.16;4977967;28;20026;-69
2023/04/23 03:47:33;;;;;;;6.05;3.20;;;;;;;9.33;74.37;99487.66;4975844;28;20024;-69
2023/04/23 03:49:58;;;;;;;6.20;3.07;;;;;;;9.32;74.52;99482.44;4961017;28;20027;-70
2023/04/23 03:52:24;;;;;;;6.40;2.97;;;;;;;9.32;74.53;99485.91;4975569;28;20031;-69
2023/04/23 03:54:50;;;;;;;5.40;2.60;;;;;;;9.33;74.53;99476.28;4977257;28;20053;-70
2023/04/23 03:57:15;;;;;;;5.27;2.63;;;;;;;9.32;74.97;99480.66;4978116;28;20050;-70
2023/04/23 03:59:40;;;;;;;4.97;2.40;;;;;;;9.33;74.52;99481.53;4957645;28;20027;-69
2023/04/23 04:02:06;;;;;;;5.93;2.90;;;;;;;9.33;74.56;99479.78;4971635;28;20101;-70
2023/04/23 04:04:32;;;;;;;7.00;2.43;;;;;;;9.32;74.31;99485.06;4973896;28;20023;-69
2023/04/23 04:06:59;;;;;;;5.50;2.70;;;;;;;9.31;74.47;99480.69;4973316;28;20030;-69
2023/04/23 04:09:25;;;;;;;5.60;2.45;;;;;;;9.31;74.54;99470.19;4978272;28;20019;-70
2023/04/23 04:11:51;;;;;;;4.88;2.67;;;;;;;9.30;74.30;99481.59;4977028;28;20039;-70
2023/04/23 04:14:16;;;;;;;5.60;2.75;;;;;;;9.27;74.49;99487.72;4978029;28;20117;-70
2023/04/23 04:16:42;;;;;;;6.13;2.63;;;;;;;9.24;74.25;99493.03;4974858;28;20037;-70
2023/04/23 04:19:07;;;;;;;5.10;2.40;;;;;;;9.19;74.22;99490.44;4978101;28;20038;-71
2023/04/23 04:21:33;;;;;;;6.07;2.85;;;;;;;9.17;74.29;99489.59;4978191;28;20387;-70
2023/04/23 04:24:03;;;;;;;5.07;2.50;;;;;;;9.18;74.42;99485.22;4978229;28;20034;-70
2023/04/23 04:26:31;;;;;;;5.57;2.80;;;;;;;9.18;74.38;99482.59;4978161;28;20023;-70
2023/04/23 04:29:00;;;;;;;4.90;2.60;;;;;;;9.18;74.34;99485.22;4992827;28;20037;-70
2023/04/23 04:31:28;;;;;;;5.35;2.40;;;;;;;9.18;74.49;99488.69;4984608;28;20443;-69
2023/04/23 04:33:56;;;;;;;5.40;2.60;;;;;;;9.19;74.44;99493.06;4993053;28;20086;-70
2023/04/23 04:36:24;;;;;;;5.30;2.60;;;;;;;9.13;74.39;99490.50;4977871;28;20018;-69
2023/04/23 04:38:50;;;;;;;6.03;2.90;;;;;;;9.07;74.77;99498.47;4944666;28;20058;-69
2023/04/23 04:41:16;;;;;;;5.23;2.67;;;;;;;9.01;74.98;99496.75;4977844;28;20022;-69
2023/04/23 04:43:42;;;;;;;7.40;2.80;;;;;;;8.99;74.97;99497.66;4976647;28;20030;-69
2023/04/23 04:46:10;;;;;;;5.50;2.72;;;;;;;9.00;74.92;99499.38;4977523;28;20418;-69
2023/04/23 04:48:36;;;;;;;5.05;2.22;;;;;;;9.04;74.66;99511.59;4992546;28;20369;-70
2023/04/23 04:51:01;;;;;;;5.17;2.33;;;;;;;9.04;74.79;99501.97;4973396;28;20031;-70
2023/04/23 04:53:27;;;;;;;5.27;2.50;;;;;;;9.07;74.73;99506.34;4968491;28;20077;-70
2023/04/23 04:55:52;;;;;;;6.73;2.53;;;;;;;9.07;74.71;99506.34;4977867;28;20027;-70
2023/04/23 04:58:17;;;;;;;5.70;2.40;;;;;;;9.07;74.67;99498.47;4977715;28;20026;-69
2023/04/23 05:00:43;;;;;;;5.23;2.57;;;;;;;9.07;74.39;99494.94;4976142;28;20026;-70
2023/04/23 05:03:08;;;;;;;5.50;2.60;;;;;;;9.03;74.67;99499.34;4976396;28;20026;-69
2023/04/23 05:05:34;;;;;;;5.30;2.50;;;;;;;9.03;74.81;99494.09;4973377;28;20023;-69
2023/04/23 05:08:01;;;;;;;5.20;2.43;;;;;;;9.03;74.65;99491.47;4973363;28;20026;-69
2023/04/23 05:10:27;;;;;;;5.15;2.50;;;;;;;9.04;74.76;99493.22;4974935;28;20037;-70
2023/04/23 05:12:55;;;;;;;5.22;2.50;;;;;;;9.03;74.71;99495.00;4973197;28;20027;-70
2023/04/23 05:15:20;;;;;;;5.57;2.30;;;;;;;9.02;74.65;99488.00;4974694;28;20059;-70
2023/04/23 05:17:46;;;;;;;5.73;2.60;;;;;;;8.99;74.81;99488.03;4981302;28;20483;-69
2023/04/23 05:20:11;;;;;;;6.00;2.60;;;;;;;9.00;74.74;99491.50;4980945;28;20051;-69
2023/04/23 05:22:37;;;;;;;6.55;2.65;;;;;;;9.03;74.55;99491.47;4976809;28;20027;-69
2023/04/23 05:25:04;;;;;;;6.43;2.90;;;;;;;9.03;74.86;99494.09;4974299;28;20024;-69
2023/04/23 05:27:29;;;;;;;6.00;2.42;;;;;;;9.07;74.67;99495.84;4987059;28;20566;-69
2023/04/23 05:29:55;;;;;;;6.80;2.73;;;;;;;9.09;74.56;99496.69;4980830;28;20058;-69
2023/04/23 05:32:20;;;;;;;5.05;2.50;;;;;;;9.10;74.65;99495.81;4956292;28;20027;-70
2023/04/23 05:34:45;;;;;;;5.63;2.80;;;;;;;9.10;74.86;99501.06;4979511;28;20018;-70
2023/04/23 05:37:11;;;;;;;8.20;2.77;;;;;;;9.09;74.51;99504.56;4981064;28;20039;-69
2023/04/23 05:39:36;;;;;;;5.23;2.70;;;;;;;9.10;74.85;99506.31;4980831;28;20027;-69
2023/04/23 05:42:02;;;;;;;6.10;2.60;;;;;;;9.06;75.02;99515.13;4980850;28;20502;-69
2023/04/23 05:44:28;;;;;;;6.05;2.72;;;;;;;9.06;75.09;99517.72;4980588;28;20041;-69
2023/04/23 05:46:54;;;;;;;4.82;2.33;;;;;;;9.09;74.87;99520.31;4963549;28;20027;-69
2023/04/23 05:49:19;;;;;;;5.93;3.00;;;;;;;9.13;74.83;99521.16;4980529;28;20022;-69
2023/04/23 05:51:45;;;;;;;6.00;3.03;;;;;;;9.12;75.23;99525.53;4947426;28;20026;-69
2023/04/23 05:54:10;;;;;;;5.55;2.60;;;;;;;9.10;75.16;99527.31;4980607;28;20427;-69
2023/04/23 05:56:35;;;;;;;5.43;2.70;;;;;;;9.08;75.65;99531.72;4980498;28;20031;-70
2023/04/23 05:59:01;;;;;;;6.33;3.00;;;;;;;9.08;75.43;99538.72;4995700;28;20627;-69
2023/04/23 06:01:26;;;;;;;6.00;2.80;;;;;;;9.11;75.67;99536.94;4977918;28;20027;-69
2023/04/23 06:03:52;;;;;;;8.20;3.03;;;;;;;9.24;75.80;99534.16;4995320;28;20024;-69
2023/04/23 06:06:17;;;;;;;6.70;2.95;;;;;;;9.33;75.47;99539.34;4979138;28;20531;-69
2023/04/23 06:08:43;;;;;;;5.50;2.77;;;;;;;9.36;75.41;99526.19;4980331;28;20034;-69
2023/04/23 06:11:09;;;;;;;5.68;2.50;;;;;;;9.56;75.29;99522.44;4980667;28;20023;-69
2023/04/23 06:13:39;;;;;;;6.63;2.30;;;;;;;9.70;75.01;99532.78;4962201;28;20071;-69
2023/04/23 06:16:05;;;;;;;5.45;2.53;;;;;;;9.71;74.85;99535.38;4976986;28;20023;-69
2023/04/23 06:18:31;;;;;;;8.90;2.70;;;;;;;9.86;75.17;99530.84;4978699;28;20530;-70
2023/04/23 06:20:57;;;;;;;5.83;2.30;;;;;;;10.05;74.26;99523.56;4994870;28;20055;-70
2023/04/23 06:23:22;;;;;;;5.05;2.38;;;;;;;10.18;74.16;99526.88;4963135;28;20019;-69
2023/04/23 06:25:48;;;;;;;5.20;2.53;;;;;;;10.22;74.63;99539.09;4979762;28;20487;-71
2023/04/23 06:28:13;;;;;;;5.27;2.20;;;;;;;10.27;74.49;99539.03;4979974;28;20033;-70
2023/04/23 06:30:38;;;;;;;5.40;2.50;;;;;;;10.42;74.24;99540.59;4976934;28;20026;-71
2023/04/23 06:33:04;;;;;;;5.13;1.90;;;;;;;10.58;74.15;99542.13;4978558;28;20037;-70
2023/04/23 06:35:30;;;;;;;6.82;2.80;;;;;;;10.61;74.94;99539.44;4979725;28;20034;-70
2023/04/23 06:37:55;;;;;;;5.57;2.53;;;;;;;10.68;74.83;99531.44;4994832;28;20033;-70
2023/04/23 06:40:21;;;;;;;4.90;2.33;;;;;;;10.75;74.75;99541.84;4979663;28;20029;-71
2023/04/23 06:42:46;;;;;;;5.30;2.70;;;;;;;10.75;74.82;99525.19;4994690;28;20037;-70
2023/04/23 06:45:12;;;;;;;4.80;2.33;;;;;;;10.72;75.52;99533.09;4979361;28;20656;-70
2023/04/23 06:47:37;;;;;;;5.37;2.20;;;;;;;10.70;75.21;99530.53;4978541;28;20034;-70
2023/04/23 06:50:04;;;;;;;5.35;2.20;;;;;;;10.71;75.42;99536.63;4962350;28;20053;-70
2023/04/23 06:52:29;;;;;;;5.07;2.40;;;;;;;10.71;75.25;99531.38;4979418;28;20026;-70
2023/04/23 06:54:55;;;;;;;5.28;2.28;;;;;;;10.74;75.19;99531.34;4962339;28;20022;-70
2023/04/23 06:57:20;;;;;;;4.53;1.80;;;;;;;10.79;75.43;99532.13;4979485;28;20031;-70
2023/04/23 06:59:46;;;;;;;5.00;1.97;;;;;;;10.90;74.98;99527.53;4994248;28;20022;-71
2023/04/23 07:02:11;;;;;;;4.75;1.90;;;;;;;11.04;75.02;99542.25;4961932;28;20073;-70
2023/04/23 07:04:37;;;;;;;6.83;2.10;;;;;;;11.22;74.72;99540.19;4979465;28;20077;-70
2023/04/23 07:07:02;;;;;;;8.03;1.90;;;;;;;11.32;74.86;99532.03;4961969;28;20411;-70
2023/04/23 07:09:28;;;;;;;4.27;1.70;;;;;;;11.48;73.87;99531.75;4974851;28;20027;-70
2023/04/23 07:11:53;;;;;;;4.70;2.00;;;;;;;11.62;74.43;99535.00;4958052;28;20057;-70
2023/04/23 07:14:18;;;;;;;4.25;1.58;;;;;;;11.78;73.73;99529.41;4961534;28;20029;-70
2023/04/23 07:16:44;;;;;;;4.27;1.80;;;;;;;11.90;74.07;99533.53;4975261;28;20019;-70
2023/04/23 07:19:09;;;;;;;4.50;1.60;;;;;;;12.05;73.63;99533.25;4977749;28;20043;-70
2023/04/23 07:21:35;;;;;;;5.53;1.83;;;;;;;12.22;73.07;99533.78;4978897;28;20054;-70
2023/04/23 07:24:05;;;;;;;5.72;1.73;;;;;;;12.39;73.22;99536.91;4977849;28;20022;-70
2023/04/23 07:26:31;;;;;;;6.33;1.60;;;;;;;12.47;72.96;99537.59;4976339;28;20030;-70
2023/04/23 07:28:57;;;;;;;5.10;1.65;;;;;;;12.44;72.75;99524.47;4978582;28;20423;-70
2023/04/23 07:31:22;;;;;;;4.27;1.50;;;;;;;12.38;73.16;99518.44;4970986;28;20829;-70
2023/04/23 07:33:48;;;;;;;5.72;1.73;;;;;;;12.41;73.21;99518.38;4978819;28;20022;-70
2023/04/23 07:36:13;;;;;;;4.23;1.77;;;;;;;12.49;73.43;99527.00;4975463;28;20029;-70
2023/04/23 07:38:39;;;;;;;4.70;1.50;;;;;;;12.44;73.92;99519.19;4978743;28;20034;-70
2023/04/23 07:41:04;;;;;;;4.18;1.65;;;;;;;12.63;73.36;99519.59;4976991;28;20022;-70
2023/04/23 07:43:30;;;;;;;7.87;1.90;;;;;;;12.74;73.23;99518.47;4978532;28;20030;-70
2023/04/23 07:45:55;;;;;;;4.40;1.70;;;;;;;12.89;73.06;99520.69;4975541;28;20094;-70
2023/04/23 07:48:21;;;;;;;5.67;1.37;;;;;;;12.97;73.03;99515.22;4974375;28;20074;-71
2023/04/23 07:50:46;;;;;;;3.92;1.17;;;;;;;12.97;73.34;99519.66;4955076;28;20087;-71
2023/04/23 07:53:11;;;;;;;6.57;1.60;;;;;;;13.01;73.03;99516.88;4977352;28;20400;-70
2023/04/23 07:55:37;;;;;;;4.13;1.57;;;;;;;13.15;72.95;99519.19;4959265;28;20019;-71
2023/04/23 07:58:02;;;;;;;3.90;1.40;;;;;;;13.37;72.70;99505.34;4978497;28;20026;-72
2023/04/23 08:00:28;;;;;;;6.53;1.35;;;;;;;13.58;72.05;99514.50;4977983;28;20494;-72
2023/04/23 08:02:53;;;;;;;4.87;1.43;;;;;;;13.74;71.49;99511.41;4982556;28;20147;-72
2023/04/23 08:05:19;;;;;;;5.43;1.47;;;;;;;13.98;71.40;99501.00;4984160;28;20018;-70
2023/04/23 08:07:44;;;;;;;4.00;1.40;;;;;;;14.18;70.88;99503.88;5000879;28;20057;-70
2023/04/23 08:10:10;;;;;;;5.47;1.80;;;;;;;14.32;70.57;99495.50;4983344;28;20324;-70
2023/04/23 08:12:35;;;;;;;4.30;1.60;;;;;;;14.40;70.59;99497.06;4977470;28;20058;-70
2023/04/23 08:15:01;;;;;;;4.73;1.47;;;;;;;14.56;70.28;99500.94;4970206;28;20026;-70
2023/04/23 08:17:27;;;;;;;3.97;1.30;;;;;;;14.64;70.21;99490.97;4974836;28;20030;-70
2023/04/23 08:19:52;;;;;;;3.80;1.53;;;;;;;14.82;70.24;99503.66;4977887;28;20050;-70
2023/04/23 08:22:17;;;;;;;4.63;1.60;;;;;;;15.05;69.60;99497.56;4978000;28;20105;-70
2023/04/23 08:24:45;;;;;;;4.05;1.40;;;;;;;15.27;69.50;99488.84;4965543;28;20031;-70
2023/04/23 08:27:10;;;;;;;4.10;1.30;;;;;;;15.47;68.83;99481.03;4974915;28;20065;-70
2023/04/23 08:29:36;;;;;;;4.65;1.20;;;;;;;15.47;68.87;99475.72;4974289;28;20023;-70
2023/04/23 08:32:01;;;;;;;5.70;1.70;;;;;;;15.44;69.25;99480.28;4979735;28;20031;-70
2023/04/23 08:34:26;;;;;;;5.53;1.50;;;;;;;15.55;68.90;99478.09;4986579;28;20027;-69
2023/04/23 08:36:52;;;;;;;4.73;1.93;;;;;;;15.70;68.88;99481.97;4983247;28;20054;-70
2023/04/23 08:39:17;;;;;;;4.20;1.40;;;;;;;15.85;68.65;99484.97;4977286;28;20471;-69
2023/04/23 08:41:44;;;;;;;5.40;1.93;;;;;;;15.95;68.32;99480.19;4968683;28;20278;-70
2023/04/23 08:44:22;;;;;;;5.47;1.75;;;;;;;15.99;67.20;99482.66;4970034;28;20443;-69
2023/04/23 08:46:48;;;;;;;4.10;1.67;;;;;;;16.09;67.67;99477.00;4988563;28;20484;-69
2023/04/23 08:49:18;;;;;;;4.22;1.45;;;;;;;16.22;67.45;99470.25;4988345;28;20029;-69
2023/04/23 08:51:53;;;;;;;5.13;1.58;;;;;;;16.36;67.44;99475.00;4992704;28;20030;-69
2023/04/23 08:54:25;;;;;;;5.20;1.50;;;;;;;16.51;67.33;99470.84;4985268;28;20384;-70
2023/04/23 08:56:51;;;;;;;4.60;1.92;;;;;;;16.56;67.36;99479.50;4938203;28;20034;-71
2023/04/23 08:59:17;;;;;;;4.57;1.50;;;;;;;16.64;67.24;99473.88;4982417;28;20038;-71
2023/04/23 09:01:43;;;;;;;4.28;1.50;;;;;;;16.62;66.48;99471.28;4986843;28;20483;-70
2023/04/23 09:04:09;;;;;;;4.18;1.48;;;;;;;16.66;67.17;99472.03;4981082;28;20043;-70
2023/04/23 09:06:35;;;;;;;4.57;1.67;;;;;;;16.76;66.82;99488.44;4981303;28;20031;-69
2023/04/23 09:09:03;;;;;;;4.05;1.60;;;;;;;16.83;67.06;99487.25;4980807;28;20102;-69
2023/04/23 09:11:29;;;;;;;4.97;1.70;;;;;;;16.86;66.65;99471.16;4981470;28;20074;-74
2023/04/23 09:13:56;;;;;;;4.50;1.50;;;;;;;16.91;66.41;99476.28;4972816;28;20027;-69
2023/04/23 09:16:21;;;;;;;4.30;1.67;;;;;;;17.03;66.54;99480.25;4975193;28;20050;-70
2023/04/23 09:18:46;;;;;;;4.45;1.60;;;;;;;17.15;66.58;99490.34;4992960;28;20779;-70
2023/04/23 09:21:13;;;;;;;5.03;1.50;;;;;;;17.26;66.15;99491.69;4982443;28;20058;-69
2023/04/23 09:23:40;;;;;;;4.35;1.50;;;;;;;17.42;65.71;99494.50;4994626;28;20491;-70
2023/04/23 09:26:06;;;;;;;4.43;1.30;;;;;;;17.53;65.62;99488.69;4972578;28;20031;-70
2023/04/23 09:28:35;;;;;;;4.40;1.30;;;;;;;17.83;65.55;99497.06;4975937;28;20091;-70
2023/04/23 09:31:01;;;;;;;3.90;1.33;;;;;;;18.06;65.00;99476.50;4979425;28;20026;-69
2023/04/23 09:33:27;;;;;;;3.70;1.23;;;;;;;18.05;64.63;99480.97;4979492;28;20045;-70
2023/04/23 09:35:53;;;;;;;3.45;1.20;;;;;;;18.11;64.39;99481.59;4978598;28;20415;-70
2023/04/23 09:38:19;;;;;;;6.40;1.35;;;;;;;18.23;64.09;99486.38;4974418;28;20105;-70
2023/04/23 09:40:44;;;;;;;4.93;1.30;;;;;;;18.32;63.98;99464.56;4984065;28;20038;-70
2023/04/23 09:43:10;;;;;;;5.40;1.60;;;;;;;18.64;62.69;99461.25;4975159;28;20037;-69
2023/04/23 09:45:36;;;;;;;3.87;1.03;;;;;;;18.88;62.80;99467.13;4983079;28;20143;-70
2023/04/23 09:48:02;;;;;;;4.30;1.20;;;;;;;19.19;62.64;99464.69;4981569;28;20058;-70
2023/04/23 09:50:37;;;;;;;4.95;1.50;;;;;;;19.55;60.25;99473.50;4982617;28;20034;-70
2023/04/23 09:53:03;;;;;;;3.80;1.20;;;;;;;19.75;60.47;99467.91;4982561;28;20030;-70
2023/04/23 09:55:34;;;;;;;3.60;1.30;;;;;;;19.85;59.23;99470.06;4981314;28;20031;-70
2023/04/23 09:58:00;;;;;;;4.55;1.20;;;;;;;19.90;59.13;99462.69;4982549;28;20027;-70
2023/04/23 10:00:29;;;;;;;4.55;1.15;;;;;;;19.98;59.06;99460.47;4969392;28;20027;-70
2023/04/23 10:02:54;;;;;;;3.33;1.10;;;;;;;20.07;58.78;99465.28;4982315;28;20063;-70
2023/04/23 10:05:22;;;;;;;3.97;1.00;;;;;;;20.24;58.59;99471.50;4981656;28;20097;-70
2023/04/23 10:07:47;;;;;;;4.03;1.10;;;;;;;20.26;58.16;99474.94;4982317;28;20034;-70
2023/04/23 10:10:14;;;;;;;3.00;0.73;;;;;;;20.28;56.85;99475.72;4981143;28;20031;-70
2023/04/23 10:12:44;;;;;;;3.10;0.90;;;;;;;20.12;57.13;99473.06;4987754;28;20045;-70
2023/04/23 10:15:12;;;;;;;3.45;1.00;;;;;;;20.03;57.58;99482.44;4998260;28;20030;-70
2023/04/23 10:17:38;;;;;;;3.72;0.98;;;;;;;19.98;56.61;99484.53;4972330;28;20034;-70
2023/04/23 10:20:08;;;;;;;3.90;1.20;;;;;;;19.89;57.18;99487.66;4968326;28;20090;-70
2023/04/23 10:22:36;;;;;;;4.40;1.00;;;;;;;19.86;57.26;99496.72;4986114;28;20057;-70
2023/04/23 10:25:07;;;;;;;3.83;1.02;;;;;;;19.89;56.11;99487.66;4986699;28;20065;-70
2023/04/23 10:27:36;;;;;;;3.38;1.00;;;;;;;20.02;56.65;99487.91;4984932;28;20038;-70
2023/04/23 10:30:04;;;;;;;4.13;0.90;;;;;;;20.18;55.95;99487.88;4979034;28;20501;-69
2023/04/23 10:32:32;;;;;;;4.07;1.20;;;;;;;20.35;56.18;99484.25;4977622;28;20081;-70
2023/04/23 10:34:57;;;;;;;3.73;0.83;;;;;;;20.63;54.79;99496.88;4985108;28;20026;-70
2023/04/23 10:37:23;;;;;;;3.42;0.90;;;;;;;20.77;54.32;99490.72;4996072;28;20037;-76
2023/04/23 10:39:54;;;;;;;3.27;0.90;;;;;;;20.83;54.58;99502.88;4973178;28;20598;-73
2023/04/23 10:42:20;;;;;;;3.60;1.13;;;;;;;20.95;54.25;99506.66;4993867;28;20529;-71
2023/04/23 10:44:46;;;;;;;3.97;1.10;;;;;;;21.18;54.21;99512.44;4991502;28;20104;-71
2023/04/23 10:47:13;;;;;;;3.13;0.87;;;;;;;21.33;53.11;99516.88;4992722;28;20502;-71
2023/04/23 10:49:39;;;;;;;5.13;2.05;;;;;;;21.40;52.85;99524.53;4980600;28;20562;-72
2023/04/23 10:52:10;;;;;;;4.27;1.00;;;;;;;21.30;52.44;99529.56;4981426;28;20056;-72
2023/04/23 10:54:35;;;;;;;6.20;1.48;;;;;;;21.20;51.92;99530.16;4990181;28;20030;-72
2023/04/23 10:57:05;;;;;;;4.18;1.10;;;;;;;21.11;52.13;99535.19;4994189;28;20490;-71
2023/04/23 10:59:33;;;;;;;3.45;0.80;;;;;;;21.02;52.40;99536.59;4981271;28;20106;-71
2023/04/23 11:02:09;;;;;;;4.50;0.80;;;;;;;20.85;52.22;99546.47;4989397;28;20034;-71
2023/04/23 11:04:40;;;;;;;4.75;1.17;;;;;;;20.73;50.65;99541.81;4993050;28;20098;-71
2023/04/23 11:07:08;;;;;;;4.63;1.40;;;;;;;20.58;51.89;99552.44;4984740;28;20480;-71
2023/04/23 11:09:33;;;;;;;4.93;1.10;;;;;;;20.41;51.35;99557.91;4977280;28;20127;-71
2023/04/23 11:12:00;;;;;;;3.77;0.90;;;;;;;20.24;51.95;99567.72;4989525;28;20061;-72
2023/04/23 11:14:44;;;;;;;6.43;0.88;;;;;;;20.01;51.56;99567.19;4975901;28;20566;-71
2023/04/23 11:17:14;;;;;;;5.00;1.20;;;;;;;19.89;50.40;99571.34;4977840;28;20165;-72
2023/04/23 11:19:41;;;;;;;4.70;1.15;;;;;;;19.84;51.65;99569.88;4972023;28;20487;-72
2023/04/23 11:22:17;;;;;;;6.00;1.15;;;;;;;19.82;51.67;99587.78;4986690;28;20030;-72
2023/04/23 11:24:44;;;;;;;4.32;1.20;;;;;;;19.81;52.10;99592.28;4979405;28;20077;-72
2023/04/23 11:27:17;;;;;;;6.40;1.30;;;;;;;19.70;51.89;99600.88;4989767;28;20046;-73
2023/04/23 11:29:44;;;;;;;5.80;1.40;;;;;;;19.53;52.22;99603.56;4977779;28;20038;-76
2023/04/23 11:32:12;;;;;;;4.10;1.23;;;;;;;19.37;52.79;99625.69;4977851;28;20026;-72